Shaftsbury Center, Vermont
Current Conditions -  °F | °C
As of 2:54 AM on Friday 19 Dec 2014 (Local Time) from KDDH Reporting Station
Overcast Overcast  
Wind Chill: -5°   Ceiling: 2500
Heat Index: -1°   Visibility: 10mi
Dew Point: -5°   Wind: 7mph
Humidity: 75%   Direction: 270°W
Pressure: 29.9"   Gusts: NA
Location:  42.9815°N, 73.2071°W
Report Text: KDDH 190754Z AUTO 27006KT 10SM BKN025 OVC030 M01/M05 A2990 RMK AO2 SLP135 T10111050
Loading
Personal Weather Stations






























Interactive Weather Map New forecast layout! Learn more

10-Day Weather Forecast

Advertisements
Track Severe Weather on mobile